Terminal Aerodrome Forecast
Issued by NWS Rapid City, SD

Home | Current Version | Previous Version | Graphics & Text | Print | Product List | Glossary On
Versions: 1 2 3 4 5 6 7 8 9 10 11 12 13 14 15 16 17 18 19 20 21 22 23 24
000
FTUS43 KUNR 211122
TAFRAP
TAF
KRAP 211122Z 2112/2212 VRB05KT P6SM FEW250
     FM211600 15013KT P6SM SCT250
     FM220300 13007KT P6SM SCT100=

USA.gov is the U.S. government's official web portal to all federal, state and local government web resources and services.